Time;durP1;ratioP1;P1;durP2;ratioP2;P2;SDS_P1;SDS_P2;PMS_P1;PMS_P2;Temp;Humidity;BMP_temperature;BMP_pressure;BME280_temperature;BME280_humidity;BME280_pressure;Samples;Min_cycle;Max_cycle;Signal;HPM_P1;HPM_P2
2022/01/07 00:00:00;;;;;;;7.23;5.27;;;3.80;99.90;;;;;;2611798;39;20841;-76
2022/01/07 00:02:28;;;;;;;6.80;4.60;;;3.90;99.90;;;;;;2610365;39;20819;-75
2022/01/07 00:04:54;;;;;;;4.60;3.27;;;3.90;99.90;;;;;;2612217;54;20486;-79
2022/01/07 00:07:20;;;;;;;6.07;4.83;;;3.90;99.90;;;;;;2609544;54;20408;-76
2022/01/07 00:09:46;;;;;;;7.20;5.90;;;4.00;99.90;;;;;;2611053;47;20258;-79
2022/01/07 00:12:12;;;;;;;9.80;5.23;;;3.90;99.90;;;;;;2610079;39;20529;-77
2022/01/07 00:14:38;;;;;;;9.90;4.97;;;3.90;99.90;;;;;;2611696;54;20412;-75
2022/01/07 00:17:04;;;;;;;5.83;4.47;;;3.90;99.90;;;;;;2611557;54;20430;-76
2022/01/07 00:19:30;;;;;;;11.13;6.40;;;3.90;99.90;;;;;;2610619;46;21114;-75
2022/01/07 00:21:56;;;;;;;6.67;4.20;;;4.00;99.90;;;;;;2610186;47;20503;-76
2022/01/07 00:24:22;;;;;;;8.20;5.13;;;3.90;99.90;;;;;;2611911;39;20770;-76
2022/01/07 00:26:50;;;;;;;7.73;5.60;;;3.90;99.90;;;;;;2610911;54;20250;-77
2022/01/07 00:29:16;;;;;;;9.30;6.27;;;3.90;99.90;;;;;;2611057;54;20423;-76
2022/01/07 00:31:42;;;;;;;13.30;6.07;;;3.90;99.90;;;;;;2610718;54;20519;-76
2022/01/07 00:34:09;;;;;;;12.57;5.53;;;3.90;99.90;;;;;;2612758;39;20817;-75
2022/01/07 00:36:36;;;;;;;16.63;5.47;;;4.00;99.90;;;;;;2610437;47;20435;-78
2022/01/07 00:39:03;;;;;;;13.53;6.00;;;4.00;99.90;;;;;;2611836;47;20411;-77
2022/01/07 00:41:28;;;;;;;8.77;5.40;;;4.00;99.90;;;;;;2610219;54;20462;-77
2022/01/07 00:43:54;;;;;;;8.40;5.33;;;3.90;99.90;;;;;;2611123;51;21000;-76
2022/01/07 00:46:20;;;;;;;9.20;5.30;;;4.00;99.90;;;;;;2610939;54;20146;-76
2022/01/07 00:48:47;;;;;;;5.43;4.53;;;4.00;99.90;;;;;;2610743;39;21069;-76
2022/01/07 00:51:13;;;;;;;12.83;5.90;;;3.90;99.90;;;;;;2611615;54;20415;-76
2022/01/07 00:53:39;;;;;;;11.60;5.20;;;3.90;99.90;;;;;;2611250;47;20426;-78
2022/01/07 00:56:05;;;;;;;7.30;5.57;;;3.90;99.90;;;;;;2610558;54;20428;-76
2022/01/07 00:58:32;;;;;;;13.30;5.47;;;3.90;99.90;;;;;;2611505;54;20563;-75
2022/01/07 01:00:58;;;;;;;9.40;5.13;;;3.90;99.90;;;;;;2611729;54;20416;-78
2022/01/07 01:03:23;;;;;;;7.43;4.63;;;3.90;99.90;;;;;;2610180;47;20463;-76
2022/01/07 01:05:52;;;;;;;9.17;5.50;;;3.90;99.90;;;;;;2611905;47;20512;-77
2022/01/07 01:08:19;;;;;;;8.40;5.40;;;4.00;99.90;;;;;;2611668;54;20411;-77
2022/01/07 01:10:45;;;;;;;11.43;4.50;;;4.00;99.90;;;;;;2610918;46;20442;-77
2022/01/07 01:13:12;;;;;;;6.83;5.20;;;4.00;99.90;;;;;;2607212;47;20440;-75
2022/01/07 01:15:39;;;;;;;6.87;5.73;;;4.00;99.90;;;;;;2611357;54;21004;-75
2022/01/07 01:18:05;;;;;;;8.50;4.87;;;4.00;99.90;;;;;;2610990;54;20858;-76
2022/01/07 01:20:32;;;;;;;11.17;4.10;;;4.00;99.90;;;;;;2611020;54;20423;-76
2022/01/07 01:22:59;;;;;;;7.00;4.43;;;4.00;99.90;;;;;;2611033;54;20424;-81
2022/01/07 01:25:25;;;;;;;10.23;4.90;;;4.00;99.90;;;;;;2612311;54;20466;-75
2022/01/07 01:27:51;;;;;;;8.03;4.53;;;4.00;99.90;;;;;;2610220;47;20995;-78
2022/01/07 01:30:18;;;;;;;6.37;4.10;;;4.10;99.90;;;;;;2610683;54;20507;-76
2022/01/07 01:32:49;;;;;;;8.87;5.60;;;4.00;99.90;;;;;;2611511;54;20431;-77
2022/01/07 01:35:19;;;;;;;3.97;3.60;;;4.00;99.90;;;;;;2611456;54;20403;-78
2022/01/07 01:37:46;;;;;;;5.97;4.27;;;4.00;99.90;;;;;;2611266;54;20426;-79
2022/01/07 01:40:12;;;;;;;7.70;5.27;;;4.00;99.90;;;;;;2610494;54;20415;-77
2022/01/07 01:42:39;;;;;;;11.10;6.07;;;4.10;99.90;;;;;;2611428;54;20450;-75
2022/01/07 01:45:08;;;;;;;7.03;4.80;;;4.10;99.90;;;;;;2610254;54;20408;-76
2022/01/07 01:47:36;;;;;;;7.57;4.40;;;4.10;99.90;;;;;;2611041;54;20978;-76
2022/01/07 01:50:04;;;;;;;8.90;5.60;;;4.00;99.90;;;;;;2612387;54;20420;-77
2022/01/07 01:52:31;;;;;;;7.00;5.17;;;4.10;99.90;;;;;;2610910;39;21025;-76
2022/01/07 01:54:56;;;;;;;7.60;5.00;;;4.00;99.90;;;;;;2610221;54;20430;-75
2022/01/07 01:57:22;;;;;;;12.40;6.30;;;4.10;99.90;;;;;;2611268;54;20408;-76
2022/01/07 01:59:49;;;;;;;9.67;5.60;;;4.10;99.90;;;;;;2610772;47;20278;-78
2022/01/07 02:02:19;;;;;;;8.27;5.50;;;4.00;99.90;;;;;;2608604;54;20419;-78
2022/01/07 02:04:45;;;;;;;4.17;3.77;;;4.00;99.90;;;;;;2609235;54;20427;-80
2022/01/07 02:07:13;;;;;;;6.30;5.00;;;4.00;99.90;;;;;;2610136;54;20456;-78
2022/01/07 02:09:39;;;;;;;8.03;6.60;;;4.00;99.90;;;;;;2608623;54;20916;-80
2022/01/07 02:12:12;;;;;;;8.10;4.77;;;4.00;99.90;;;;;;2607485;54;20454;-79
2022/01/07 02:14:51;;;;;;;7.90;5.13;;;4.00;99.90;;;;;;2609125;39;20789;-80
2022/01/07 02:17:17;;;;;;;8.63;5.20;;;4.00;99.90;;;;;;2608465;54;20415;-80
2022/01/07 02:19:43;;;;;;;7.77;4.70;;;4.10;99.90;;;;;;2609827;54;20418;-80
2022/01/07 02:22:08;;;;;;;7.17;5.77;;;4.00;99.90;;;;;;2609036;54;20991;-77
2022/01/07 02:24:37;;;;;;;9.40;3.03;;;4.00;99.90;;;;;;2608498;39;20929;-80
2022/01/07 02:27:06;;;;;;;4.37;3.93;;;3.90;99.90;;;;;;2609683;54;20427;-79
2022/01/07 02:29:32;;;;;;;4.23;3.83;;;3.90;99.90;;;;;;2609413;47;20434;-77
2022/01/07 02:31:58;;;;;;;7.20;4.60;;;3.90;99.90;;;;;;2610991;54;20438;-77
2022/01/07 02:34:25;;;;;;;10.83;5.80;;;3.80;99.90;;;;;;2610240;54;21095;-77
2022/01/07 02:36:51;;;;;;;7.03;4.70;;;3.80;99.90;;;;;;2608850;47;20174;-77
2022/01/07 02:39:17;;;;;;;5.13;4.63;;;3.70;99.90;;;;;;2610195;54;20407;-79
2022/01/07 02:41:43;;;;;;;12.80;6.03;;;3.70;99.90;;;;;;2610376;47;20454;-79
2022/01/07 02:44:10;;;;;;;8.80;4.70;;;3.60;99.90;;;;;;2609386;47;20416;-79
2022/01/07 02:46:36;;;;;;;9.33;5.30;;;3.60;99.90;;;;;;2609071;47;20459;-81
2022/01/07 02:49:17;;;;;;;7.40;6.20;;;3.50;99.90;;;;;;2610188;54;20974;-82
2022/01/07 02:51:44;;;;;;;6.83;5.30;;;3.40;99.90;;;;;;2607826;47;20455;-78
2022/01/07 02:54:10;;;;;;;4.67;4.20;;;3.40;99.90;;;;;;2610571;47;20404;-79
2022/01/07 02:56:38;;;;;;;8.37;6.03;;;3.30;99.90;;;;;;2609844;54;20416;-81
2022/01/07 02:59:06;;;;;;;7.40;5.90;;;3.30;99.90;;;;;;2609536;47;20454;-78
2022/01/07 03:01:34;;;;;;;7.97;6.90;;;3.20;99.90;;;;;;2609527;46;20450;-77
2022/01/07 03:04:00;;;;;;;12.83;6.20;;;3.20;99.90;;;;;;2610272;54;20387;-80
2022/01/07 03:06:27;;;;;;;6.00;5.40;;;3.20;99.90;;;;;;2608657;47;20462;-79
2022/01/07 03:08:53;;;;;;;11.10;6.27;;;3.20;99.90;;;;;;2610030;47;20466;-81
2022/01/07 03:11:20;;;;;;;11.53;7.30;;;3.10;99.90;;;;;;2609879;47;20427;-79
2022/01/07 03:13:46;;;;;;;12.43;6.60;;;3.00;99.90;;;;;;2609144;39;20801;-79
2022/01/07 03:16:12;;;;;;;5.67;4.47;;;3.00;99.90;;;;;;2609133;54;20400;-78
2022/01/07 03:18:38;;;;;;;9.00;5.50;;;3.00;99.90;;;;;;2610302;47;20438;-80
2022/01/07 03:21:04;;;;;;;7.00;5.50;;;3.00;99.90;;;;;;2611640;39;21513;-79
2022/01/07 03:23:31;;;;;;;12.67;5.73;;;2.90;99.90;;;;;;2607301;54;20455;-79
2022/01/07 03:25:57;;;;;;;7.93;7.10;;;2.90;99.90;;;;;;2609864;47;20444;-80
2022/01/07 03:28:24;;;;;;;12.40;6.40;;;2.80;99.90;;;;;;2608847;47;20503;-78
2022/01/07 03:30:51;;;;;;;9.60;6.73;;;2.80;99.90;;;;;;2611170;39;20548;-80
2022/01/07 03:33:19;;;;;;;8.03;6.70;;;2.80;99.90;;;;;;2610863;46;20450;-78
2022/01/07 03:35:46;;;;;;;8.03;6.10;;;2.80;99.90;;;;;;2610162;46;20411;-80
2022/01/07 03:38:12;;;;;;;13.50;7.20;;;2.80;99.90;;;;;;2609890;54;20415;-77
2022/01/07 03:40:39;;;;;;;5.53;4.60;;;2.70;99.90;;;;;;2609736;54;20426;-79
2022/01/07 03:43:07;;;;;;;12.77;8.10;;;2.70;99.90;;;;;;2611118;54;20992;-78
2022/01/07 03:45:34;;;;;;;5.17;4.47;;;2.70;99.90;;;;;;2609994;47;20434;-79
2022/01/07 03:48:00;;;;;;;8.40;6.17;;;2.70;99.90;;;;;;2610549;47;20415;-80
2022/01/07 03:50:28;;;;;;;7.07;6.23;;;2.70;99.90;;;;;;2610289;54;20427;-78
2022/01/07 03:52:56;;;;;;;8.53;5.77;;;2.60;99.90;;;;;;2611180;54;20585;-81
2022/01/07 03:55:24;;;;;;;8.80;6.63;;;2.60;99.90;;;;;;2610705;54;20408;-78
2022/01/07 03:57:50;;;;;;;6.40;5.23;;;2.60;99.90;;;;;;2610841;39;20773;-80
2022/01/07 04:00:33;;;;;;;7.70;6.40;;;2.60;99.90;;;;;;2610294;47;20423;-79
2022/01/07 04:03:19;;;;;;;12.20;5.47;;;2.60;99.90;;;;;;2611196;54;20940;-80
2022/01/07 04:05:46;;;;;;;9.10;7.17;;;2.60;99.90;;;;;;2610934;54;20447;-80
2022/01/07 04:08:12;;;;;;;7.93;5.63;;;2.60;99.90;;;;;;2610427;54;20461;-80
2022/01/07 04:10:40;;;;;;;9.60;6.30;;;2.50;99.90;;;;;;2611283;39;20870;-77
2022/01/07 04:13:09;;;;;;;6.73;5.27;;;2.60;99.90;;;;;;2611796;47;20433;-80
2022/01/07 04:15:36;;;;;;;5.83;5.13;;;2.60;99.90;;;;;;2608249;54;20419;-79
2022/01/07 04:18:02;;;;;;;8.10;6.27;;;2.60;99.90;;;;;;2610192;39;21057;-80
2022/01/07 04:20:31;;;;;;;6.47;5.80;;;2.60;99.90;;;;;;2609931;54;20523;-76
2022/01/07 04:22:59;;;;;;;11.27;6.53;;;2.60;99.90;;;;;;2611329;47;20444;-79
2022/01/07 04:25:25;;;;;;;12.33;5.77;;;2.60;99.90;;;;;;2608859;54;20412;-79
2022/01/07 04:27:57;;;;;;;19.07;7.10;;;2.70;99.90;;;;;;2610583;31;20914;-79
2022/01/07 04:30:24;;;;;;;8.00;5.23;;;2.70;99.90;;;;;;2612449;54;20510;-77
2022/01/07 04:32:52;;;;;;;13.63;5.53;;;2.60;99.90;;;;;;2610517;39;20792;-78
2022/01/07 04:35:20;;;;;;;7.40;5.57;;;2.70;99.90;;;;;;2610546;54;20403;-78
2022/01/07 04:37:46;;;;;;;12.27;7.67;;;2.70;99.90;;;;;;2611262;54;20389;-78
2022/01/07 04:40:13;;;;;;;11.80;6.83;;;2.70;99.90;;;;;;2610993;54;20383;-78
2022/01/07 04:42:39;;;;;;;4.23;3.67;;;2.80;99.90;;;;;;2610464;39;20759;-79
2022/01/07 04:45:06;;;;;;;14.90;6.80;;;2.80;99.90;;;;;;2609869;47;20431;-78
2022/01/07 04:47:35;;;;;;;5.77;4.93;;;2.80;99.90;;;;;;2612133;54;20408;-79
2022/01/07 04:50:02;;;;;;;8.30;5.60;;;2.80;99.90;;;;;;2611514;54;20423;-78
2022/01/07 04:52:28;;;;;;;12.43;5.97;;;2.80;99.90;;;;;;2609753;47;20525;-79
2022/01/07 04:54:53;;;;;;;6.50;5.17;;;2.80;99.90;;;;;;2611090;54;20419;-78
2022/01/07 04:57:19;;;;;;;4.80;4.27;;;2.80;99.90;;;;;;2610318;54;20262;-79
2022/01/07 04:59:45;;;;;;;11.00;4.67;;;2.80;99.90;;;;;;2610389;54;20763;-77
2022/01/07 05:02:11;;;;;;;6.17;4.80;;;2.90;99.90;;;;;;2612102;54;20279;-78
2022/01/07 05:04:36;;;;;;;8.23;5.37;;;2.90;99.90;;;;;;2610739;47;20166;-77
2022/01/07 05:07:02;;;;;;;7.07;4.40;;;2.90;99.90;;;;;;2610821;54;20151;-79
2022/01/07 05:09:28;;;;;;;11.73;5.37;;;3.00;99.90;;;;;;2611092;39;20636;-80
2022/01/07 05:11:54;;;;;;;7.80;5.30;;;2.90;99.90;;;;;;2611063;54;21109;-79
2022/01/07 05:14:20;;;;;;;7.47;4.10;;;2.90;99.90;;;;;;2608700;46;20182;-79
2022/01/07 05:16:46;;;;;;;6.90;4.70;;;3.00;99.90;;;;;;2611321;54;20407;-79
2022/01/07 05:19:13;;;;;;;6.97;5.20;;;3.00;99.90;;;;;;2610913;54;20466;-78
2022/01/07 05:21:39;;;;;;;6.57;4.40;;;3.00;99.90;;;;;;2609564;54;20454;-79
2022/01/07 05:24:06;;;;;;;12.07;5.17;;;3.00;99.90;;;;;;2610970;54;22753;-79
2022/01/07 05:26:32;;;;;;;6.00;4.87;;;3.00;99.90;;;;;;2610576;47;20454;-79
2022/01/07 05:28:58;;;;;;;8.03;5.20;;;3.00;99.90;;;;;;2610548;47;20408;-79
2022/01/07 05:31:25;;;;;;;12.20;4.87;;;3.00;99.90;;;;;;2609993;54;20495;-78
2022/01/07 05:33:53;;;;;;;5.67;4.57;;;3.00;99.90;;;;;;2608138;47;20434;-78
2022/01/07 05:36:19;;;;;;;4.70;4.07;;;3.00;99.90;;;;;;2611991;39;20878;-79
2022/01/07 05:38:46;;;;;;;5.57;4.20;;;3.00;99.90;;;;;;2609217;47;20423;-79
2022/01/07 05:41:12;;;;;;;9.23;5.30;;;2.90;99.90;;;;;;2610961;47;20423;-79
2022/01/07 05:43:38;;;;;;;7.70;5.20;;;2.90;99.90;;;;;;2609536;50;21232;-78
2022/01/07 05:46:04;;;;;;;5.83;4.50;;;2.80;99.90;;;;;;2611547;47;20464;-77
2022/01/07 05:48:30;;;;;;;10.17;4.97;;;2.80;99.90;;;;;;2610162;54;20412;-78
2022/01/07 05:50:56;;;;;;;5.63;5.00;;;2.70;99.90;;;;;;2609588;47;21019;-78
2022/01/07 05:53:21;;;;;;;5.97;3.83;;;2.70;99.90;;;;;;2610231;47;20167;-78
2022/01/07 05:55:47;;;;;;;8.70;5.40;;;2.70;99.90;;;;;;2610197;46;20212;-78
2022/01/07 05:58:13;;;;;;;3.53;3.23;;;2.70;99.90;;;;;;2610400;39;20657;-78
2022/01/07 06:00:39;;;;;;;12.40;5.43;;;2.60;99.90;;;;;;2609658;47;20403;-80
2022/01/07 06:03:05;;;;;;;4.17;3.83;;;2.60;99.90;;;;;;2609624;54;20737;-79
2022/01/07 06:05:31;;;;;;;6.30;4.00;;;2.50;99.90;;;;;;2611310;39;20738;-78
2022/01/07 06:07:57;;;;;;;5.27;3.80;;;2.50;99.90;;;;;;2611467;54;20154;-79
2022/01/07 06:10:23;;;;;;;9.63;6.20;;;2.40;99.90;;;;;;2610547;47;20426;-79
2022/01/07 06:12:49;;;;;;;15.37;5.57;;;2.40;99.90;;;;;;2610028;47;20413;-79
2022/01/07 06:15:15;;;;;;;3.20;2.93;;;2.30;99.90;;;;;;2611664;54;20177;-79
2022/01/07 06:17:41;;;;;;;7.90;4.77;;;2.40;99.90;;;;;;2609235;54;20155;-79
2022/01/07 06:20:08;;;;;;;7.40;5.60;;;2.30;99.90;;;;;;2610921;54;20714;-79
2022/01/07 06:22:37;;;;;;;5.43;4.93;;;2.40;99.90;;;;;;2610271;39;20796;-80
2022/01/07 06:25:04;;;;;;;9.03;6.40;;;2.40;99.90;;;;;;2611163;46;20444;-78
2022/01/07 06:27:31;;;;;;;6.20;4.63;;;2.50;99.90;;;;;;2608056;47;20430;-78
2022/01/07 06:29:57;;;;;;;8.00;4.20;;;2.50;99.90;;;;;;2611507;54;21004;-78
2022/01/07 06:32:23;;;;;;;6.20;4.73;;;2.50;99.90;;;;;;2610406;54;20398;-78
2022/01/07 06:34:49;;;;;;;6.40;5.00;;;2.60;99.90;;;;;;2610740;54;20494;-78
2022/01/07 06:37:15;;;;;;;12.93;5.73;;;2.60;99.90;;;;;;2609589;47;20940;-78
2022/01/07 06:39:41;;;;;;;6.40;4.73;;;2.60;99.90;;;;;;2609256;47;20451;-78
2022/01/07 06:42:07;;;;;;;4.67;4.27;;;2.60;99.90;;;;;;2610213;54;20150;-78
2022/01/07 06:44:33;;;;;;;6.77;5.37;;;2.60;99.90;;;;;;2611260;54;21009;-79
2022/01/07 06:47:02;;;;;;;7.73;4.77;;;2.60;99.90;;;;;;2609943;54;20480;-78
2022/01/07 06:49:28;;;;;;;5.67;5.13;;;2.70;99.90;;;;;;2610192;54;20409;-79
2022/01/07 06:51:54;;;;;;;8.90;6.10;;;2.70;99.90;;;;;;2609736;47;20435;-79
2022/01/07 06:54:20;;;;;;;7.60;6.10;;;2.80;99.90;;;;;;2609180;47;20214;-79
2022/01/07 06:56:46;;;;;;;5.17;4.67;;;2.80;99.90;;;;;;2610008;47;20423;-80
2022/01/07 06:59:13;;;;;;;7.70;5.27;;;2.70;99.90;;;;;;2609223;54;20415;-82
2022/01/07 07:01:43;;;;;;;13.13;5.43;;;2.70;99.90;;;;;;2611253;54;20427;-79
2022/01/07 07:04:09;;;;;;;6.53;5.17;;;2.80;99.90;;;;;;2608227;54;20509;-77
2022/01/07 07:06:35;;;;;;;4.87;4.30;;;2.80;99.90;;;;;;2612143;54;21183;-76
2022/01/07 07:09:02;;;;;;;10.47;5.80;;;2.80;99.90;;;;;;2614528;54;20390;-79
2022/01/07 07:11:29;;;;;;;5.40;4.90;;;2.90;99.90;;;;;;2613835;54;20430;-79
2022/01/07 07:13:54;;;;;;;14.17;7.13;;;2.90;99.90;;;;;;2614997;47;20453;-78
2022/01/07 07:16:20;;;;;;;6.13;5.47;;;3.00;99.90;;;;;;2612806;54;20407;-77
2022/01/07 07:18:47;;;;;;;8.73;7.83;;;3.00;99.90;;;;;;2612284;47;20198;-80
2022/01/07 07:21:13;;;;;;;9.20;6.37;;;3.00;99.90;;;;;;2613446;47;20428;-78
2022/01/07 07:23:39;;;;;;;8.93;7.00;;;3.00;99.90;;;;;;2614068;54;20418;-79
2022/01/07 07:26:11;;;;;;;10.83;8.30;;;3.00;99.90;;;;;;2612518;54;20513;-78
2022/01/07 07:28:38;;;;;;;6.33;5.83;;;3.10;99.90;;;;;;2609401;47;20458;-79
2022/01/07 07:31:10;;;;;;;7.33;5.63;;;3.20;99.90;;;;;;2612522;47;20443;-77
2022/01/07 07:36:30;;;;;;;7.90;5.07;;;3.30;99.90;;;;;;2612832;54;20406;-80
2022/01/07 07:39:01;;;;;;;7.63;6.30;;;3.30;99.90;;;;;;2614299;54;20422;-79
2022/01/07 07:41:29;;;;;;;7.60;6.80;;;3.30;99.90;;;;;;2611616;54;20416;-81
2022/01/07 07:43:57;;;;;;;9.53;7.40;;;3.40;99.90;;;;;;2612714;47;21449;-82
2022/01/07 07:46:24;;;;;;;8.90;6.53;;;3.30;99.90;;;;;;2613071;47;20470;-81
2022/01/07 07:48:51;;;;;;;8.93;7.37;;;3.30;99.90;;;;;;2610278;47;20451;-81
2022/01/07 07:51:18;;;;;;;8.07;6.40;;;3.40;99.90;;;;;;2611762;54;22114;-79
2022/01/07 07:53:44;;;;;;;11.77;8.43;;;3.50;99.90;;;;;;2607907;39;21386;-80
2022/01/07 07:56:12;;;;;;;11.70;7.93;;;3.50;99.90;;;;;;2611424;47;20443;-80
2022/01/07 07:58:42;;;;;;;8.37;7.07;;;3.50;99.90;;;;;;2610115;54;20535;-81
2022/01/07 08:01:08;;;;;;;11.90;6.30;;;3.60;99.90;;;;;;2608183;54;20456;-82
2022/01/07 08:03:34;;;;;;;10.43;7.30;;;3.60;99.90;;;;;;2612505;47;20423;-83
2022/01/07 08:06:01;;;;;;;11.23;6.47;;;3.60;99.90;;;;;;2611953;47;20430;-82
2022/01/07 08:08:27;;;;;;;9.57;8.27;;;3.60;99.90;;;;;;2610029;54;20400;-80
2022/01/07 08:10:57;;;;;;;12.40;7.40;;;3.60;99.90;;;;;;2612609;54;20410;-82
2022/01/07 08:16:00;;;;;;;8.13;6.20;;;3.60;99.90;;;;;;2610789;47;20432;-82
2022/01/07 08:18:34;;;;;;;15.63;7.77;;;3.60;99.90;;;;;;2610365;54;20423;-81
2022/01/07 08:21:04;;;;;;;11.77;7.77;;;3.60;99.90;;;;;;2612993;47;20427;-84
2022/01/07 08:23:31;;;;;;;9.50;7.90;;;3.70;99.90;;;;;;2611297;54;20395;-79
2022/01/07 08:25:58;;;;;;;5.33;4.83;;;3.70;99.90;;;;;;2610935;47;20427;-81
2022/01/07 08:28:28;;;;;;;6.77;6.00;;;3.70;99.90;;;;;;2610721;46;20427;-81
2022/01/07 08:36:14;;;;;;;8.93;7.20;;;3.80;99.90;;;;;;2612172;54;20608;-80
2022/01/07 08:38:40;;;;;;;10.70;7.07;;;3.70;99.90;;;;;;2611354;47;20402;-77
2022/01/07 08:41:08;;;;;;;6.83;6.17;;;3.80;99.90;;;;;;2610727;54;20528;-82
2022/01/07 08:43:34;;;;;;;8.17;7.13;;;3.80;99.90;;;;;;2614485;54;20403;-78
2022/01/07 08:46:00;;;;;;;7.07;5.70;;;3.80;99.90;;;;;;2612419;54;20507;-79
2022/01/07 08:48:28;;;;;;;9.50;7.10;;;3.90;99.90;;;;;;2612154;54;20401;-80
2022/01/07 08:50:54;;;;;;;9.57;7.53;;;3.90;99.90;;;;;;2611453;54;20426;-80
2022/01/07 08:53:20;;;;;;;7.30;5.50;;;3.90;99.90;;;;;;2610699;54;20415;-79
2022/01/07 08:55:48;;;;;;;7.20;6.20;;;3.90;99.90;;;;;;2627860;36;20609;-82
2022/01/07 08:58:15;;;;;;;8.93;6.60;;;4.00;99.90;;;;;;2610949;54;20419;-84
2022/01/07 09:00:41;;;;;;;7.60;6.67;;;4.00;99.90;;;;;;2611426;54;20536;-80
2022/01/07 09:03:07;;;;;;;10.87;6.53;;;4.10;99.90;;;;;;2612388;47;20404;-83
2022/01/07 09:05:33;;;;;;;7.73;6.47;;;4.20;99.90;;;;;;2612097;54;20426;-76
2022/01/07 09:07:59;;;;;;;7.90;6.20;;;4.10;99.90;;;;;;2612066;54;20380;-80
2022/01/07 09:10:25;;;;;;;6.63;4.63;;;4.10;99.90;;;;;;2612503;54;20427;-80
2022/01/07 09:12:51;;;;;;;6.73;5.90;;;4.10;99.90;;;;;;2610681;54;20427;-80
2022/01/07 09:15:17;;;;;;;9.47;5.20;;;4.20;99.90;;;;;;2611608;47;20567;-83
2022/01/07 09:17:43;;;;;;;6.03;5.40;;;4.20;99.90;;;;;;2611720;54;21044;-82
2022/01/07 09:20:11;;;;;;;6.10;4.60;;;4.30;99.90;;;;;;2612156;31;21154;-80
2022/01/07 09:22:37;;;;;;;5.87;4.47;;;4.20;99.90;;;;;;2610731;54;22034;-84
2022/01/07 09:25:05;;;;;;;6.57;5.17;;;4.40;99.90;;;;;;2612912;54;20442;-80
2022/01/07 09:27:32;;;;;;;11.47;6.90;;;4.40;99.90;;;;;;2612740;54;20526;-82
2022/01/07 09:29:58;;;;;;;7.93;5.47;;;4.40;99.90;;;;;;2612178;47;20467;-80
2022/01/07 09:32:24;;;;;;;4.63;4.17;;;4.40;99.90;;;;;;2609457;47;20427;-78
2022/01/07 09:34:49;;;;;;;6.33;5.70;;;4.30;99.90;;;;;;2612361;54;20451;-80
2022/01/07 09:37:15;;;;;;;6.53;5.77;;;4.50;99.90;;;;;;2611279;54;20979;-81
2022/01/07 09:39:41;;;;;;;5.77;5.17;;;4.50;99.90;;;;;;2609984;54;20404;-81
2022/01/07 09:42:08;;;;;;;6.33;4.17;;;4.60;99.90;;;;;;2611312;54;20159;-81
2022/01/07 09:44:42;;;;;;;4.37;3.97;;;4.60;99.90;;;;;;2610760;39;20803;-81
2022/01/07 09:47:12;;;;;;;5.20;4.70;;;4.70;99.90;;;;;;2609198;54;20420;-81
2022/01/07 09:49:38;;;;;;;8.23;5.30;;;4.60;99.90;;;;;;2610000;39;21129;-78
2022/01/07 09:52:05;;;;;;;17.83;5.80;;;4.60;99.90;;;;;;2609600;54;20420;-80
2022/01/07 09:54:34;;;;;;;6.30;5.13;;;4.60;99.90;;;;;;2609930;54;20412;-80
2022/01/07 09:57:01;;;;;;;8.77;6.00;;;4.60;99.90;;;;;;2608295;39;20828;-81
2022/01/07 09:59:28;;;;;;;6.93;5.50;;;4.60;99.90;;;;;;2608138;54;20495;-80
2022/01/07 10:02:05;;;;;;;5.70;5.17;;;4.70;99.90;;;;;;2612131;39;20795;-77
2022/01/07 10:04:40;;;;;;;10.50;4.10;;;4.70;99.90;;;;;;2614454;39;20796;-80
2022/01/07 10:07:17;;;;;;;4.27;3.87;;;4.70;99.90;;;;;;2612116;54;20426;-79
2022/01/07 10:10:02;;;;;;;7.33;4.50;;;4.70;99.90;;;;;;2609760;54;20484;-80
2022/01/07 10:12:48;;;;;;;10.83;4.43;;;4.70;99.90;;;;;;2611044;54;20518;-80
2022/01/07 10:15:16;;;;;;;5.77;4.40;;;4.70;99.90;;;;;;2612043;46;20458;-79
2022/01/07 10:18:03;;;;;;;6.07;4.23;;;4.80;99.90;;;;;;2611838;54;20514;-80
2022/01/07 10:20:33;;;;;;;6.00;4.63;;;4.60;99.90;;;;;;2610546;47;20451;-81
2022/01/07 10:23:02;;;;;;;4.67;4.27;;;4.70;99.90;;;;;;2610428;47;21036;-80
2022/01/07 10:25:34;;;;;;;3.70;3.40;;;4.70;99.90;;;;;;2610344;54;20419;-79
2022/01/07 10:28:15;;;;;;;5.17;4.03;;;4.70;99.90;;;;;;2610580;54;20967;-79
2022/01/07 10:30:51;;;;;;;4.13;3.73;;;4.70;99.90;;;;;;2609862;54;20416;-81
2022/01/07 10:33:24;;;;;;;5.80;4.30;;;4.80;99.90;;;;;;2611389;47;20427;-79
2022/01/07 10:35:55;;;;;;;4.50;4.10;;;4.80;99.90;;;;;;2616310;36;20812;-80
2022/01/07 10:38:26;;;;;;;4.23;3.40;;;4.80;99.90;;;;;;2609489;54;20461;-79
2022/01/07 10:40:59;;;;;;;4.93;4.43;;;5.00;99.90;;;;;;2610002;47;20451;-81
2022/01/07 10:43:32;;;;;;;5.83;5.30;;;5.10;99.90;;;;;;2609907;47;20530;-77
2022/01/07 10:46:07;;;;;;;4.30;4.00;;;5.20;99.90;;;;;;2611055;47;20521;-79
2022/01/07 10:48:39;;;;;;;3.57;3.30;;;5.00;99.90;;;;;;2609818;54;20442;-80
2022/01/07 10:51:14;;;;;;;4.90;3.80;;;5.00;99.90;;;;;;2611864;54;20418;-80
2022/01/07 10:53:54;;;;;;;5.37;4.90;;;4.90;99.90;;;;;;2611534;47;20427;-79
2022/01/07 10:56:33;;;;;;;4.30;4.00;;;5.10;99.90;;;;;;2612632;47;20416;-80
2022/01/07 10:59:06;;;;;;;3.80;3.40;;;5.00;99.90;;;;;;2610685;47;21050;-78
2022/01/07 11:01:57;;;;;;;4.10;3.77;;;5.00;99.90;;;;;;2612767;54;20464;-78
2022/01/07 11:04:26;;;;;;;3.50;3.30;;;5.10;99.90;;;;;;2612022;54;20959;-78
2022/01/07 11:06:52;;;;;;;4.83;4.40;;;5.00;99.90;;;;;;2613270;54;20416;-80
2022/01/07 11:09:20;;;;;;;3.47;3.13;;;5.30;99.90;;;;;;2610783;54;20952;-78
2022/01/07 11:11:51;;;;;;;5.00;3.60;;;5.40;99.90;;;;;;2612169;54;20571;-80
2022/01/07 11:14:27;;;;;;;3.87;3.67;;;5.40;99.90;;;;;;2610637;47;20449;-77
2022/01/07 11:16:59;;;;;;;4.03;3.73;;;5.50;99.90;;;;;;2612302;47;20427;-81
2022/01/07 11:19:37;;;;;;;3.33;3.03;;;5.40;99.90;;;;;;2611041;54;20439;-78
2022/01/07 11:22:04;;;;;;;2.93;2.73;;;5.30;99.90;;;;;;2612359;47;20534;-78
2022/01/07 11:24:47;;;;;;;6.90;4.07;;;5.30;99.90;;;;;;2611617;39;21053;-79
2022/01/07 11:27:16;;;;;;;2.50;2.30;;;5.40;99.90;;;;;;2612127;54;20411;-78
2022/01/07 11:30:05;;;;;;;3.50;3.20;;;5.30;99.90;;;;;;2611028;47;20420;-78
2022/01/07 11:32:35;;;;;;;5.13;3.63;;;5.60;99.90;;;;;;2610918;47;20423;-79
2022/01/07 11:35:20;;;;;;;3.27;2.93;;;5.50;99.90;;;;;;2611957;51;20424;-78
2022/01/07 11:37:53;;;;;;;7.60;4.60;;;5.50;99.90;;;;;;2611017;31;20952;-77
2022/01/07 11:40:31;;;;;;;3.57;3.30;;;5.50;99.90;;;;;;2612579;39;20852;-78
2022/01/07 11:43:05;;;;;;;3.37;3.07;;;5.70;99.90;;;;;;2611436;54;20411;-78
2022/01/07 11:45:38;;;;;;;3.37;3.17;;;5.50;99.90;;;;;;2613068;39;20797;-78
2022/01/07 11:48:27;;;;;;;4.60;3.03;;;5.90;99.90;;;;;;2610797;39;20509;-78
2022/01/07 11:50:55;;;;;;;3.70;3.17;;;5.60;99.90;;;;;;2612241;47;20936;-79
2022/01/07 11:53:22;;;;;;;3.73;2.77;;;5.80;99.90;;;;;;2612359;54;20447;-79
2022/01/07 11:55:50;;;;;;;3.97;3.67;;;5.70;99.90;;;;;;2611222;47;20434;-78
2022/01/07 11:58:17;;;;;;;8.40;4.27;;;5.70;99.90;;;;;;2606323;47;20431;-79
2022/01/07 12:00:58;;;;;;;3.77;3.03;;;5.70;99.90;;;;;;2608391;47;20431;-78
2022/01/07 12:03:32;;;;;;;5.83;4.10;;;5.70;99.90;;;;;;2609554;54;21067;-81
2022/01/07 12:05:58;;;;;;;4.70;3.90;;;5.60;99.90;;;;;;2608278;47;20471;-79
2022/01/07 12:08:38;;;;;;;4.37;3.97;;;5.50;99.90;;;;;;2609342;47;20406;-79
2022/01/07 12:11:11;;;;;;;4.10;3.70;;;5.40;99.90;;;;;;2611965;47;20433;-79
2022/01/07 12:13:40;;;;;;;3.33;3.07;;;5.50;99.90;;;;;;2608515;54;20402;-79
2022/01/07 12:16:10;;;;;;;3.43;3.13;;;5.50;99.90;;;;;;2611415;47;20415;-81
2022/01/07 12:18:36;;;;;;;3.40;3.20;;;5.50;99.90;;;;;;2609653;54;20443;-79
2022/01/07 12:21:02;;;;;;;7.33;3.07;;;5.40;99.90;;;;;;2611131;54;20400;-79
2022/01/07 12:23:28;;;;;;;4.13;3.73;;;5.40;99.90;;;;;;2610959;54;21011;-80
2022/01/07 12:25:57;;;;;;;4.27;3.00;;;5.40;99.90;;;;;;2608543;54;20496;-78
2022/01/07 12:28:23;;;;;;;4.90;4.40;;;5.60;99.90;;;;;;2610625;54;20415;-79
2022/01/07 12:30:50;;;;;;;4.70;4.30;;;5.60;99.90;;;;;;2610322;54;20395;-81
2022/01/07 12:33:16;;;;;;;3.40;3.20;;;5.70;99.90;;;;;;2608682;47;20447;-78
2022/01/07 12:35:42;;;;;;;3.77;3.10;;;5.60;99.90;;;;;;2610044;47;21041;-79
2022/01/07 12:38:13;;;;;;;4.90;4.50;;;5.60;99.90;;;;;;2611359;54;20439;-79
2022/01/07 12:40:39;;;;;;;7.57;4.37;;;5.80;99.90;;;;;;2610938;47;20975;-79
2022/01/07 12:43:05;;;;;;;4.00;3.60;;;5.90;99.90;;;;;;2611150;47;20432;-81
2022/01/07 12:45:31;;;;;;;4.23;3.93;;;6.00;99.90;;;;;;2611407;54;20460;-80
2022/01/07 12:47:57;;;;;;;3.17;2.90;;;5.70;99.90;;;;;;2611378;39;20852;-81
2022/01/07 12:50:28;;;;;;;8.93;4.93;;;5.60;99.90;;;;;;2609944;47;20411;-80
2022/01/07 12:52:56;;;;;;;6.83;4.20;;;5.60;99.90;;;;;;2615664;39;20824;-80
2022/01/07 12:55:24;;;;;;;3.57;3.37;;;5.80;99.90;;;;;;2610909;54;20432;-82
2022/01/07 12:57:57;;;;;;;3.80;3.50;;;5.70;99.90;;;;;;2610220;47;20463;-80
2022/01/07 13:00:34;;;;;;;4.90;3.13;;;5.70;99.90;;;;;;2611581;54;20458;-77
2022/01/07 13:03:05;;;;;;;7.07;3.77;;;5.70;99.90;;;;;;2610969;54;20423;-79
2022/01/07 13:05:37;;;;;;;7.70;3.17;;;5.80;99.90;;;;;;2610018;54;20407;-81
2022/01/07 13:08:18;;;;;;;4.27;3.87;;;5.80;99.90;;;;;;2612326;46;20450;-79
2022/01/07 13:10:49;;;;;;;7.20;5.27;;;5.80;99.90;;;;;;2613697;39;20962;-82